Flight Track Log - Related Links

Times and Time Zones

All times are in EDT time to prevent confusion due to time zone crossing. See the DAL930 flight status page for this flight to view local times or setup timezone preferences in your user account.

Time Position Orientation Groundspeed Altitude Reporting Facility
EDT Latitude Longitude Course Direction KTS MPH feet Rate Location/Type
Thu 12:13:04 PM 40.7333 -73.8333 194° South 197 227 1,800  Level New York TRACON
Thu 12:14:04 PM 40.6833 -73.8500 194° South 233 268 4,600 2,538 Climbing New York TRACON
Thu 12:16:06 PM 40.5567 -73.9397 208° Southwest 265 305 9,500 2,505 Climbing New York Center
Thu 12:17:06 PM 40.5256 -74.0092 240° Southwest 233 268 12,200 2,370 Climbing New York Center
Thu 12:18:05 PM 40.5503 -74.0922 291° West 218 251 14,200 1,800 Climbing New York Center
Thu 12:19:06 PM 40.4847 -74.1272 202° Southwest 205 236 15,800 1,240 Climbing New York Center
Thu 12:20:06 PM 40.3989 -74.1422 188° South 273 314 16,700 559 Climbing New York Center
Thu 12:21:04 PM 40.2961 -74.1672 191° South 355 409 16,900 153 Climbing New York Center
Thu 12:22:04 PM 40.1939 -74.1647 179° South 375 432 17,000 750 Climbing New York Center
Thu 12:23:04 PM 40.0992 -74.1981 195° South 375 432 18,400 1,537 Climbing New York Center
Thu 12:24:05 PM 40.0217 -74.2864 221° Southwest 356 410 20,100 1,611 Climbing New York Center
Thu 12:26:14 PM 39.8481 -74.4889 222° Southwest 380 437 23,500 1,302 Climbing Washington Center
Thu 12:27:14 PM 39.7736 -74.5711 220° Southwest 385 443 24,200 800 Climbing Washington Center
Thu 12:28:14 PM 39.6850 -74.6719 221° Southwest 401 461 25,100 1,050 Climbing Washington Center
Thu 12:29:14 PM 39.5961 -74.7756 222° Southwest 420 483 26,300 1,400 Climbing Washington Center
Thu 12:30:14 PM 39.5050 -74.8789 221° Southwest 436 502 27,900 1,500 Climbing Washington Center
Thu 12:31:14 PM 39.4139 -74.9817 221° Southwest 441 507 29,300 1,050 Climbing Washington Center
Thu 12:32:14 PM 39.3247 -75.0844 222° Southwest 436 502 30,000 700 Climbing Washington Center
Thu 12:33:14 PM 39.2125 -75.1494 204° Southwest 436 502 30,700 900 Climbing Washington Center
Thu 12:34:14 PM 39.0939 -75.1958 197° South 441 507 31,800 650 Climbing Washington Center
Thu 12:35:14 PM 38.9775 -75.2472 199° South 446 513 32,000 100 Climbing Washington Center
Thu 12:36:14 PM 38.8608 -75.2958 198° South 446 513 32,000  Level Washington Center
Thu 12:37:14 PM 38.7419 -75.3414 197° South 446 513 32,000  Level Washington Center
Thu 12:38:14 PM 38.6233 -75.3897 198° South 446 513 32,000  Level Washington Center
Thu 12:39:14 PM 38.5067 -75.4406 199° South 446 513 32,000  Level Washington Center
Thu 12:40:14 PM 38.3900 -75.4936 200° South 446 513 32,000  Level Washington Center
Thu 12:41:14 PM 38.2650 -75.5600 203° Southwest 446 513 32,000  Level Washington Center
Thu 12:42:14 PM 38.1522 -75.6286 206° Southwest 446 513 32,000  Level Washington Center
Thu 12:43:14 PM 38.0397 -75.6972 206° Southwest 446 513 32,000  Level Washington Center
Thu 12:44:14 PM 37.9436 -75.7656 209° Southwest 446 513 32,000  Level Washington Center
Thu 12:45:14 PM 37.8206 -75.8361 204° Southwest 446 513 32,000  Level Washington Center
Thu 12:46:14 PM 37.7222 -75.9042 209° Southwest 446 513 32,000  Level Washington Center
Thu 12:47:14 PM 37.6117 -75.9744 207° Southwest 446 513 32,000  Level Washington Center
Thu 12:48:14 PM 37.4986 -76.0419 205° Southwest 446 513 32,000  Level Washington Center
Thu 12:49:14 PM 37.3878 -76.1094 206° Southwest 446 513 32,000  Level Washington Center
Thu 12:50:14 PM 37.2583 -76.1789 203° Southwest 451 519 32,000  Level Washington Center
Thu 12:51:14 PM 37.1472 -76.2483 206° Southwest 451 519 32,000  Level Washington Center
Thu 12:52:14 PM 37.0364 -76.3153 206° Southwest 451 519 32,000  Level Washington Center
Thu 12:53:14 PM 36.9253 -76.3817 206° Southwest 445 512 32,000  Level Washington Center
Thu 12:54:14 PM 36.8144 -76.4506 206° Southwest 445 512 32,000  Level Washington Center
Thu 12:55:14 PM 36.7033 -76.5194 206° Southwest 445 512 32,000  Level Washington Center
Thu 12:56:14 PM 36.6047 -76.5803 206° Southwest 445 512 32,000  Level Washington Center
Thu 12:57:14 PM 36.4936 -76.6461 205° Southwest 445 512 32,000  Level Washington Center
Thu 12:58:14 PM 36.3825 -76.7117 205° Southwest 445 512 32,000  Level Washington Center
Thu 12:59:14 PM 36.2692 -76.7769 205° Southwest 445 512 32,000  Level Washington Center
Thu 01:00:14 PM 36.1453 -76.8472 205° Southwest 445 512 32,000  Level Washington Center
Thu 01:01:14 PM 36.0339 -76.9122 205° Southwest 445 512 32,000  Level Washington Center
Thu 01:02:14 PM 35.9228 -76.9797 206° Southwest 445 512 32,000 -50 Level Washington Center
Thu 01:03:14 PM 35.8114 -77.0444 205° Southwest 445 512 31,900  Descending Washington Center
Thu 01:04:14 PM 35.7000 -77.1114 206° Southwest 445 512 32,000 50 Climbing Washington Center
Thu 01:05:15 PM 35.6033 -77.1656 204° Southwest 433 498 32,000  Level Washington Center
Thu 01:06:14 PM 35.4917 -77.2325 206° Southwest 438 504 32,000  Level Washington Center
Thu 01:07:14 PM 35.3822 -77.2989 206° Southwest 438 504 32,000  Level Washington Center
Thu 01:08:14 PM 35.2667 -77.3625 204° Southwest 444 511 32,000  Level Washington Center
Thu 01:09:14 PM 35.1531 -77.4261 205° Southwest 451 519 32,000  Level Washington Center
Thu 01:10:14 PM 35.0414 -77.4922 206° Southwest 451 519 32,000  Level Washington Center
Thu 01:11:14 PM 34.9278 -77.5528 204° Southwest 446 513 32,000  Level Washington Center
Thu 01:12:14 PM 34.8181 -77.6186 206° Southwest 446 513 32,000  Level Washington Center
Thu 01:13:14 PM 34.7044 -77.6814 204° Southwest 446 513 32,000  Level Washington Center
Thu 01:14:14 PM 34.5886 -77.7464 205° Southwest 446 513 32,000  Level Washington Center
Thu 01:15:14 PM 34.4747 -77.8089 204° Southwest 446 513 32,000  Level Washington Center
Thu 01:17:28 PM 34.2122 -77.9233 200° South 454 522 32,000  Level Jacksonville Center
Thu 01:18:28 PM 34.0842 -77.9583 193° South 464 534 32,000  Level Jacksonville Center
Thu 01:19:28 PM 33.9603 -77.9903 192° South 469 540 32,000  Level Jacksonville Center
Thu 01:20:28 PM 33.8367 -78.0297 195° South 469 540 32,000  Level Jacksonville Center
Thu 01:21:28 PM 33.7147 -78.0639 193° South 464 534 32,000  Level Jacksonville Center
Thu 01:22:28 PM 33.5786 -78.1039 194° South 464 534 32,000  Level Jacksonville Center
Thu 01:23:28 PM 33.4525 -78.1381 193° South 464 534 32,000  Level Jacksonville Center
Thu 01:24:28 PM 33.3350 -78.1742 194° South 464 534 32,000  Level Jacksonville Center
Thu 01:25:28 PM 33.2111 -78.2106 194° South 464 534 32,000  Level Jacksonville Center
Thu 01:26:28 PM 33.0872 -78.2417 192° South 464 534 32,000  Level Jacksonville Center
Thu 01:27:28 PM 32.9653 -78.2778 194° South 464 534 32,000  Level Jacksonville Center
Thu 01:28:28 PM 32.8433 -78.3111 193° South 464 534 32,000  Level Jacksonville Center
Thu 01:29:28 PM 32.7214 -78.3444 193° South 459 528 32,000  Level Jacksonville Center
Thu 01:30:28 PM 32.5933 -78.3781 192° South 464 534 32,000  Level Jacksonville Center
Thu 01:31:28 PM 32.4672 -78.4164 194° South 464 534 32,000  Level Jacksonville Center
Thu 01:32:28 PM 32.3681 -78.4408 192° South 464 534 32,000  Level Jacksonville Center
Thu 01:33:28 PM 32.2339 -78.4819 195° South 464 534 32,000  Level Jacksonville Center
Thu 01:34:40 PM 32.1058 -78.5222 195° South 471 542 32,000  Level Jacksonville Center
Thu 01:35:40 PM 31.9569 -78.5661 194° South 471 542 32,000  Level Jacksonville Center
Thu 01:36:40 PM 31.8308 -78.6039 194° South 466 536 32,000  Level Jacksonville Center
Thu 01:37:40 PM 31.7128 -78.6311 191° South 466 536 32,000  Level Jacksonville Center
Thu 01:38:40 PM 31.5847 -78.6714 195° South 466 536 32,000  Level Jacksonville Center
Thu 01:39:40 PM 31.4606 -78.7061 193° South 466 536 32,000  Level Jacksonville Center
Thu 01:40:40 PM 31.3367 -78.7433 194° South 471 542 32,000  Level Jacksonville Center
Thu 01:41:40 PM 31.2147 -78.7778 194° South 466 536 32,000  Level Jacksonville Center
Thu 01:43:00 PM 31.0723 -78.8147 193° South  Level FlightAware Approximate
Thu 01:44:40 PM 30.8339 -78.8839 194° South 450 518 32,000  Level Jacksonville Center
Thu 01:45:40 PM 30.7119 -78.9206 194° South 459 528 32,000  Level Jacksonville Center
Thu 01:46:40 PM 30.5878 -78.9547 193° South 459 528 32,000  Level Jacksonville Center
Thu 01:47:40 PM 30.4614 -78.9886 193° South 467 537 32,000  Level Jacksonville Center
Thu 01:48:31 PM 30.3600 -79.0142 192° South 489 563 32,000  Level Miami Center
Thu 01:49:31 PM 30.2406 -79.0478 194° South 467 537 32,000  Level Miami Center
Thu 01:50:00 PM 30.3245 -79.0097 194° South  Level FlightAware Approximate
Thu 01:50:31 PM 30.1108 -79.0786 192° South 467 537 32,000  Level Miami Center
Thu 01:51:31 PM 29.9747 -79.1261 197° South 467 537 32,000  Level Miami Center
Thu 01:52:31 PM 29.8469 -79.1594 193° South 473 544 32,000 -300 Level Miami Center
Thu 01:53:31 PM 29.7150 -79.1900 191° South 478 550 31,400 -1,050 Descending Miami Center
Thu 01:54:31 PM 29.5914 -79.2256 194° South 472 543 29,900 -1,350 Descending Miami Center
Thu 01:55:31 PM 29.4658 -79.2561 192° South 465 535 28,700 -950 Descending Miami Center
Thu 01:56:31 PM 29.3339 -79.2794 189° South 465 535 28,000 -350 Descending Miami Center
Thu 01:57:31 PM 29.2042 -79.3122 192° South 480 552 28,000  Level Miami Center
Thu 01:58:31 PM 29.0972 -79.3431 194° South 480 552 28,000  Level Miami Center
Thu 01:59:31 PM 28.9631 -79.3733 191° South 470 541 28,000  Level Miami Center
Thu 02:00:31 PM 28.8333 -79.4036 192° South 470 541 28,000  Level Miami Center
Thu 02:01:31 PM 28.7075 -79.4386 194° South 470 541 28,000  Level Miami Center
Thu 02:02:31 PM 28.5775 -79.4661 191° South 470 541 28,000  Level Miami Center
Thu 02:03:31 PM 28.4494 -79.5011 194° South 470 541 28,000  Level Miami Center
Thu 02:04:31 PM 28.3153 -79.5333 192° South 475 547 28,000  Level Miami Center
Thu 02:05:31 PM 28.1853 -79.5656 192° South 480 552 28,000  Level Miami Center
Thu 02:06:31 PM 28.0533 -79.5953 191° South 485 558 28,000  Level Miami Center
Thu 02:07:31 PM 27.9211 -79.6275 192° South 491 565 28,000  Level Miami Center
Thu 02:08:31 PM 27.7889 -79.6594 192° South 484 557 28,000 -50 Level Miami Center
Thu 02:09:31 PM 27.6444 -79.6933 192° South 489 563 27,900 -800 Descending Miami Center
Thu 02:10:31 PM 27.5142 -79.7275 193° South 489 563 26,400 -1,700 Descending Miami Center
Thu 02:11:31 PM 27.3861 -79.7594 192° South 484 557 24,500 -1,300 Descending Miami Center
Thu 02:12:31 PM 27.2733 -79.7661 183° South 468 539 23,800 -1,500 Descending Miami Center
Thu 02:13:31 PM 27.1486 -79.7325 167° South 451 519 21,500 -2,500 Descending Miami Center
Thu 02:14:31 PM 27.0200 -79.6897 163° South 448 516 18,800 -2,509 Descending Miami Center
Thu 02:15:21 PM 26.9267 -79.6642 166° South 422 486 16,900 -2,424 Descending Miami Center
Thu 02:16:10 PM 26.8328 -79.6503 172° South 394 453 14,800 -2,314 Descending Miami Center
Thu 02:16:31 PM 26.8014 -79.6589 194° South 388 447 14,200 -2,323 Descending Miami Center
Thu 02:17:12 PM 26.7339 -79.6944 205° Southwest 374 430 12,400 -2,400 Descending Miami Center
Thu 02:17:31 PM 26.7128 -79.7008 195° South 378 435 11,800 -2,459 Descending Miami Center
Thu 02:18:13 PM 26.6367 -79.7408 205° Southwest 371 427 9,900 -2,600 Descending Miami Center
Thu 02:18:31 PM 26.6094 -79.7519 200° South 378 435 9,200 -1,742 Descending Miami Center
Thu 02:19:15 PM 26.5461 -79.7850 205° Southwest 360 414 8,100 -1,200 Descending Miami Center
Thu 02:19:31 PM 26.5272 -79.7917 198° South 363 418 8,000 -98 Descending Miami Center
Thu 02:20:16 PM 26.4575 -79.8247 203° Southwest 294 338 8,000  Level Miami Center
Thu 02:20:31 PM 26.4428 -79.8336 208° Southwest 323 372 8,000 98 Level Miami Center
Thu 02:21:17 PM 26.3881 -79.8578 202° Southwest 264 304 8,100 -561 Climbing Miami Center
Thu 02:22:18 PM 26.3283 -79.9119 219° Southwest 273 314 7,000 -488 Descending Miami Center
Thu 02:23:20 PM 26.2772 -79.9544 217° Southwest 231 266 7,100 -293 Climbing Miami Center
Thu 02:24:21 PM 26.2303 -80.0042 224° Southwest 220 253 6,400 -541 Descending Miami Center
Thu 02:25:22 PM 26.1811 -80.0539 222° Southwest 224 258 6,000 -148 Descending Miami Center
Thu 02:26:23 PM 26.1608 -80.1228 252° West 229 264 6,100 -443 Climbing Miami Center
Thu 02:27:24 PM 26.1469 -80.1894 257° West 232 267 5,100 -488 Descending Miami Center
Thu 02:28:26 PM 26.1472 -80.2658 270° West 231 266 5,100  Level Miami Center
Thu 02:29:27 PM 26.1475 -80.3378 270° West 228 262 5,100  Level Miami Center
Thu 02:30:28 PM 26.1503 -80.4003 273° West 208 239 5,100  Level Miami Center
Thu 02:31:30 PM 26.1486 -80.4628 268° West 193 222 5,100 -49 Level Miami Center
Thu 02:32:31 PM 26.1492 -80.5297 271° West 195 224 5,000 -49 Descending Miami Center
Thu 02:33:32 PM 26.1272 -80.5731 241° Southwest 192 221 5,000 -49 Level Miami Center
Thu 02:34:34 PM 26.0817 -80.5600 166° South 186 214 4,900 -293 Descending Miami Center
Thu 02:35:35 PM 26.0767 -80.4997 95° East 194 223 4,400 -738 Descending Miami Center
Thu 02:36:36 PM 26.0825 -80.4375 84° East 194 223 3,400 -984 Descending Miami Center
Thu 02:37:37 PM 26.0881 -80.3822 84° East 175 201 2,400 -689 Descending Miami Center
Thu 02:38:38 PM 26.1017 -80.3317 73° East 172 198 2,000 -293 Descending Miami Center
Thu 02:39:40 PM 26.1133 -80.2789 76° East 174 200 1,800 -293 Descending Miami Center
Thu 02:40:41 PM 26.1292 -80.2283 71° East 168 193 1,400 -393 Descending Miami Center

Login

Don't have an account? Register now (free) for customized features, flight alerts, and more!